sensor_id;sensor_type;location;lat;lon;timestamp;temperature;humidity
14741;DHT22;7462;53.530;9.414;2022-12-05T00:01:37;4.90;99.90
14741;DHT22;7462;53.530;9.414;2022-12-05T00:04:09;4.90;99.90
14741;DHT22;7462;53.530;9.414;2022-12-05T00:06:39;5.00;99.90
14741;DHT22;7462;53.530;9.414;2022-12-05T00:09:09;4.90;99.90
14741;DHT22;7462;53.530;9.414;2022-12-05T00:11:40;5.00;99.90
14741;DHT22;7462;53.530;9.414;2022-12-05T00:14:10;5.00;99.90
14741;DHT22;7462;53.530;9.414;2022-12-05T00:16:39;5.00;99.90
14741;DHT22;7462;53.530;9.414;2022-12-05T00:19:11;5.00;99.90
14741;DHT22;7462;53.530;9.414;2022-12-05T00:21:39;5.00;99.90
14741;DHT22;7462;53.530;9.414;2022-12-05T00:24:10;5.00;99.90
14741;DHT22;7462;53.530;9.414;2022-12-05T00:26:40;5.00;99.90
14741;DHT22;7462;53.530;9.414;2022-12-05T00:29:08;4.90;99.90
14741;DHT22;7462;53.530;9.414;2022-12-05T00:31:36;5.00;99.90
14741;DHT22;7462;53.530;9.414;2022-12-05T00:34:04;4.90;99.90
14741;DHT22;7462;53.530;9.414;2022-12-05T00:36:33;4.90;99.90
14741;DHT22;7462;53.530;9.414;2022-12-05T00:39:04;5.00;99.90
14741;DHT22;7462;53.530;9.414;2022-12-05T00:41:33;4.90;99.90
14741;DHT22;7462;53.530;9.414;2022-12-05T00:44:03;4.90;99.90
14741;DHT22;7462;53.530;9.414;2022-12-05T00:46:32;4.90;99.90
14741;DHT22;7462;53.530;9.414;2022-12-05T00:49:02;4.90;99.90
14741;DHT22;7462;53.530;9.414;2022-12-05T00:51:32;4.90;99.90
14741;DHT22;7462;53.530;9.414;2022-12-05T00:54:03;4.90;99.90
14741;DHT22;7462;53.530;9.414;2022-12-05T00:56:31;4.90;99.90
14741;DHT22;7462;53.530;9.414;2022-12-05T00:59:02;4.90;99.90
14741;DHT22;7462;53.530;9.414;2022-12-05T01:01:33;4.90;99.90
14741;DHT22;7462;53.530;9.414;2022-12-05T01:04:04;4.90;99.90
14741;DHT22;7462;53.530;9.414;2022-12-05T01:06:32;5.10;99.90
14741;DHT22;7462;53.530;9.414;2022-12-05T01:09:00;5.00;99.90
14741;DHT22;7462;53.530;9.414;2022-12-05T01:11:29;4.90;99.90
14741;DHT22;7462;53.530;9.414;2022-12-05T01:14:03;5.10;99.90
14741;DHT22;7462;53.530;9.414;2022-12-05T01:16:33;5.00;99.90
14741;DHT22;7462;53.530;9.414;2022-12-05T01:19:04;5.00;99.90
14741;DHT22;7462;53.530;9.414;2022-12-05T01:21:32;4.90;99.90
14741;DHT22;7462;53.530;9.414;2022-12-05T01:24:01;4.90;99.90
14741;DHT22;7462;53.530;9.414;2022-12-05T01:26:29;4.90;99.90
14741;DHT22;7462;53.530;9.414;2022-12-05T01:28:57;4.90;99.90
14741;DHT22;7462;53.530;9.414;2022-12-05T01:31:28;4.80;99.90
14741;DHT22;7462;53.530;9.414;2022-12-05T01:33:58;4.90;99.90
14741;DHT22;7462;53.530;9.414;2022-12-05T01:36:27;5.00;99.90
14741;DHT22;7462;53.530;9.414;2022-12-05T01:38:56;5.00;99.90
14741;DHT22;7462;53.530;9.414;2022-12-05T01:41:26;5.00;99.90
14741;DHT22;7462;53.530;9.414;2022-12-05T01:44:00;5.00;99.90
14741;DHT22;7462;53.530;9.414;2022-12-05T01:46:31;5.10;99.90
14741;DHT22;7462;53.530;9.414;2022-12-05T01:49:03;5.00;99.90
14741;DHT22;7462;53.530;9.414;2022-12-05T01:51:33;5.10;99.90
14741;DHT22;7462;53.530;9.414;2022-12-05T01:54:04;5.00;99.90
14741;DHT22;7462;53.530;9.414;2022-12-05T01:56:33;5.00;99.90
14741;DHT22;7462;53.530;9.414;2022-12-05T01:59:03;5.00;99.90
14741;DHT22;7462;53.530;9.414;2022-12-05T02:01:34;5.00;99.90
14741;DHT22;7462;53.530;9.414;2022-12-05T02:04:03;5.00;99.90
14741;DHT22;7462;53.530;9.414;2022-12-05T02:06:32;5.00;99.90
14741;DHT22;7462;53.530;9.414;2022-12-05T02:09:00;5.10;99.90
14741;DHT22;7462;53.530;9.414;2022-12-05T02:11:30;5.00;99.90
14741;DHT22;7462;53.530;9.414;2022-12-05T02:14:09;5.00;99.90
14741;DHT22;7462;53.530;9.414;2022-12-05T02:16:48;5.00;99.90
14741;DHT22;7462;53.530;9.414;2022-12-05T02:22:46;5.10;99.90
14741;DHT22;7462;53.530;9.414;2022-12-05T02:25:51;5.00;99.90
14741;DHT22;7462;53.530;9.414;2022-12-05T02:31:26;5.00;99.90
14741;DHT22;7462;53.530;9.414;2022-12-05T02:34:01;5.00;99.90
14741;DHT22;7462;53.530;9.414;2022-12-05T02:36:37;5.00;99.90
14741;DHT22;7462;53.530;9.414;2022-12-05T02:39:13;5.00;99.90
14741;DHT22;7462;53.530;9.414;2022-12-05T02:41:48;5.10;99.90
14741;DHT22;7462;53.530;9.414;2022-12-05T02:44:20;5.00;99.90
14741;DHT22;7462;53.530;9.414;2022-12-05T02:46:52;5.00;99.90
14741;DHT22;7462;53.530;9.414;2022-12-05T02:49:24;5.20;99.90
14741;DHT22;7462;53.530;9.414;2022-12-05T02:51:57;5.20;99.90
14741;DHT22;7462;53.530;9.414;2022-12-05T02:54:30;5.10;99.90
14741;DHT22;7462;53.530;9.414;2022-12-05T02:57:00;5.10;99.90
14741;DHT22;7462;53.530;9.414;2022-12-05T02:59:28;5.10;99.90
14741;DHT22;7462;53.530;9.414;2022-12-05T03:01:57;5.10;99.90
14741;DHT22;7462;53.530;9.414;2022-12-05T03:04:28;5.10;99.90
14741;DHT22;7462;53.530;9.414;2022-12-05T03:06:59;5.10;99.90
14741;DHT22;7462;53.530;9.414;2022-12-05T03:09:33;5.00;99.90
14741;DHT22;7462;53.530;9.414;2022-12-05T03:12:07;5.10;99.90
14741;DHT22;7462;53.530;9.414;2022-12-05T03:14:38;5.20;99.90
14741;DHT22;7462;53.530;9.414;2022-12-05T03:17:13;5.20;99.90
14741;DHT22;7462;53.530;9.414;2022-12-05T03:19:54;5.30;99.90
14741;DHT22;7462;53.530;9.414;2022-12-05T03:22:30;5.20;99.90
14741;DHT22;7462;53.530;9.414;2022-12-05T03:25:00;5.10;99.90
14741;DHT22;7462;53.530;9.414;2022-12-05T03:27:36;5.20;99.90
14741;DHT22;7462;53.530;9.414;2022-12-05T03:30:09;5.30;99.90
14741;DHT22;7462;53.530;9.414;2022-12-05T03:32:44;5.10;99.90
14741;DHT22;7462;53.530;9.414;2022-12-05T03:35:21;5.10;99.90
14741;DHT22;7462;53.530;9.414;2022-12-05T03:37:52;5.10;99.90
14741;DHT22;7462;53.530;9.414;2022-12-05T03:40:26;5.10;99.90
14741;DHT22;7462;53.530;9.414;2022-12-05T03:43:00;5.10;99.90
14741;DHT22;7462;53.530;9.414;2022-12-05T03:45:34;5.10;99.90
14741;DHT22;7462;53.530;9.414;2022-12-05T03:48:09;5.20;99.90
14741;DHT22;7462;53.530;9.414;2022-12-05T03:50:41;5.30;99.90
14741;DHT22;7462;53.530;9.414;2022-12-05T03:53:14;5.30;99.90
14741;DHT22;7462;53.530;9.414;2022-12-05T03:55:52;5.20;99.90
14741;DHT22;7462;53.530;9.414;2022-12-05T03:58:26;5.30;99.90
14741;DHT22;7462;53.530;9.414;2022-12-05T04:00:56;5.20;99.90
14741;DHT22;7462;53.530;9.414;2022-12-05T04:03:32;5.20;99.90
14741;DHT22;7462;53.530;9.414;2022-12-05T04:06:11;5.20;99.90
14741;DHT22;7462;53.530;9.414;2022-12-05T04:08:44;5.20;99.90
14741;DHT22;7462;53.530;9.414;2022-12-05T04:11:17;5.30;99.90
14741;DHT22;7462;53.530;9.414;2022-12-05T04:13:48;5.30;99.90
14741;DHT22;7462;53.530;9.414;2022-12-05T04:16:23;5.60;99.90
14741;DHT22;7462;53.530;9.414;2022-12-05T04:19:16;5.90;99.90
14741;DHT22;7462;53.530;9.414;2022-12-05T04:21:48;5.90;99.90
14741;DHT22;7462;53.530;9.414;2022-12-05T04:24:19;5.80;99.90
14741;DHT22;7462;53.530;9.414;2022-12-05T04:27:14;5.90;99.90
14741;DHT22;7462;53.530;9.414;2022-12-05T04:29:52;5.70;99.90
14741;DHT22;7462;53.530;9.414;2022-12-05T04:32:25;5.60;99.90
14741;DHT22;7462;53.530;9.414;2022-12-05T04:34:58;5.50;99.90
14741;DHT22;7462;53.530;9.414;2022-12-05T04:37:30;5.70;99.90
14741;DHT22;7462;53.530;9.414;2022-12-05T04:40:08;5.70;99.90
14741;DHT22;7462;53.530;9.414;2022-12-05T04:42:39;5.80;99.90
14741;DHT22;7462;53.530;9.414;2022-12-05T04:45:12;5.60;99.90
14741;DHT22;7462;53.530;9.414;2022-12-05T04:47:45;5.50;99.90
14741;DHT22;7462;53.530;9.414;2022-12-05T04:50:17;5.60;99.90
14741;DHT22;7462;53.530;9.414;2022-12-05T04:52:48;5.50;99.90
14741;DHT22;7462;53.530;9.414;2022-12-05T04:55:20;5.60;99.90
14741;DHT22;7462;53.530;9.414;2022-12-05T04:57:57;5.50;99.90
14741;DHT22;7462;53.530;9.414;2022-12-05T05:00:28;5.50;99.90
14741;DHT22;7462;53.530;9.414;2022-12-05T05:03:00;5.40;99.90
14741;DHT22;7462;53.530;9.414;2022-12-05T05:05:34;5.40;99.90
14741;DHT22;7462;53.530;9.414;2022-12-05T05:08:10;5.40;99.90
14741;DHT22;7462;53.530;9.414;2022-12-05T05:10:49;5.40;99.90
14741;DHT22;7462;53.530;9.414;2022-12-05T05:13:18;5.50;99.90
14741;DHT22;7462;53.530;9.414;2022-12-05T05:15:46;5.50;99.90
14741;DHT22;7462;53.530;9.414;2022-12-05T05:18:14;5.50;99.90
14741;DHT22;7462;53.530;9.414;2022-12-05T05:20:44;5.60;99.90
14741;DHT22;7462;53.530;9.414;2022-12-05T05:23:12;5.50;99.90
14741;DHT22;7462;53.530;9.414;2022-12-05T05:25:40;5.50;99.90
14741;DHT22;7462;53.530;9.414;2022-12-05T05:28:08;5.50;99.90
14741;DHT22;7462;53.530;9.414;2022-12-05T05:30:36;5.50;99.90
14741;DHT22;7462;53.530;9.414;2022-12-05T05:33:04;5.50;99.90
14741;DHT22;7462;53.530;9.414;2022-12-05T05:35:35;5.60;99.90
14741;DHT22;7462;53.530;9.414;2022-12-05T05:38:04;5.60;99.90
14741;DHT22;7462;53.530;9.414;2022-12-05T05:40:34;5.50;99.90
14741;DHT22;7462;53.530;9.414;2022-12-05T05:43:03;5.40;99.90
14741;DHT22;7462;53.530;9.414;2022-12-05T05:45:31;5.40;99.90
14741;DHT22;7462;53.530;9.414;2022-12-05T05:47:59;5.40;99.90
14741;DHT22;7462;53.530;9.414;2022-12-05T05:50:27;5.40;99.90
14741;DHT22;7462;53.530;9.414;2022-12-05T05:52:55;5.60;99.90
14741;DHT22;7462;53.530;9.414;2022-12-05T05:55:24;5.50;99.90
14741;DHT22;7462;53.530;9.414;2022-12-05T05:57:52;5.70;99.90
14741;DHT22;7462;53.530;9.414;2022-12-05T06:00:21;5.60;99.90
14741;DHT22;7462;53.530;9.414;2022-12-05T06:02:49;5.50;99.90
14741;DHT22;7462;53.530;9.414;2022-12-05T06:05:17;5.50;99.90
14741;DHT22;7462;53.530;9.414;2022-12-05T06:07:46;5.60;99.90
14741;DHT22;7462;53.530;9.414;2022-12-05T06:10:15;5.60;99.90
14741;DHT22;7462;53.530;9.414;2022-12-05T06:12:44;5.50;99.90
14741;DHT22;7462;53.530;9.414;2022-12-05T06:15:12;5.60;99.90
14741;DHT22;7462;53.530;9.414;2022-12-05T06:17:40;5.60;99.90
14741;DHT22;7462;53.530;9.414;2022-12-05T06:20:09;5.50;99.90
14741;DHT22;7462;53.530;9.414;2022-12-05T06:22:37;5.50;99.90
14741;DHT22;7462;53.530;9.414;2022-12-05T06:25:06;5.50;99.90
14741;DHT22;7462;53.530;9.414;2022-12-05T06:27:35;5.40;99.90
14741;DHT22;7462;53.530;9.414;2022-12-05T06:30:05;5.60;99.90
14741;DHT22;7462;53.530;9.414;2022-12-05T06:32:33;5.70;99.90
14741;DHT22;7462;53.530;9.414;2022-12-05T06:35:02;5.60;99.90
14741;DHT22;7462;53.530;9.414;2022-12-05T06:37:36;5.60;99.90
14741;DHT22;7462;53.530;9.414;2022-12-05T06:40:06;5.50;99.90
14741;DHT22;7462;53.530;9.414;2022-12-05T06:42:34;5.50;99.90
14741;DHT22;7462;53.530;9.414;2022-12-05T06:45:05;5.50;99.90
14741;DHT22;7462;53.530;9.414;2022-12-05T06:47:33;5.60;99.90
14741;DHT22;7462;53.530;9.414;2022-12-05T06:50:01;5.50;99.90
14741;DHT22;7462;53.530;9.414;2022-12-05T06:52:30;5.50;99.90
14741;DHT22;7462;53.530;9.414;2022-12-05T06:54:58;5.50;99.90
14741;DHT22;7462;53.530;9.414;2022-12-05T06:57:27;5.40;99.90
14741;DHT22;7462;53.530;9.414;2022-12-05T06:59:55;5.40;99.90
14741;DHT22;7462;53.530;9.414;2022-12-05T07:02:51;5.50;99.90
14741;DHT22;7462;53.530;9.414;2022-12-05T07:05:18;5.50;99.90
14741;DHT22;7462;53.530;9.414;2022-12-05T07:07:46;5.50;99.90
14741;DHT22;7462;53.530;9.414;2022-12-05T07:10:15;5.40;99.90
14741;DHT22;7462;53.530;9.414;2022-12-05T07:12:43;5.40;99.90
14741;DHT22;7462;53.530;9.414;2022-12-05T07:15:11;5.40;99.90
14741;DHT22;7462;53.530;9.414;2022-12-05T07:17:39;5.40;99.90
14741;DHT22;7462;53.530;9.414;2022-12-05T07:20:09;5.30;99.90
14741;DHT22;7462;53.530;9.414;2022-12-05T07:22:38;5.40;99.90
14741;DHT22;7462;53.530;9.414;2022-12-05T07:25:06;5.30;99.90
14741;DHT22;7462;53.530;9.414;2022-12-05T07:27:35;5.40;99.90
14741;DHT22;7462;53.530;9.414;2022-12-05T07:30:03;5.30;99.90
14741;DHT22;7462;53.530;9.414;2022-12-05T07:32:32;5.30;99.90
14741;DHT22;7462;53.530;9.414;2022-12-05T07:35:00;5.30;99.90
14741;DHT22;7462;53.530;9.414;2022-12-05T07:37:30;5.30;99.90
14741;DHT22;7462;53.530;9.414;2022-12-05T07:39:58;5.30;99.90
14741;DHT22;7462;53.530;9.414;2022-12-05T07:42:26;5.30;99.90
14741;DHT22;7462;53.530;9.414;2022-12-05T07:44:54;5.20;99.90
14741;DHT22;7462;53.530;9.414;2022-12-05T07:47:22;5.20;99.90
14741;DHT22;7462;53.530;9.414;2022-12-05T07:49:50;5.20;99.90
14741;DHT22;7462;53.530;9.414;2022-12-05T07:52:18;5.20;99.90
14741;DHT22;7462;53.530;9.414;2022-12-05T07:54:48;5.20;99.90
14741;DHT22;7462;53.530;9.414;2022-12-05T07:57:16;5.30;99.90
14741;DHT22;7462;53.530;9.414;2022-12-05T07:59:44;5.20;99.90
14741;DHT22;7462;53.530;9.414;2022-12-05T08:02:12;5.20;99.90
14741;DHT22;7462;53.530;9.414;2022-12-05T08:04:40;5.30;99.90
14741;DHT22;7462;53.530;9.414;2022-12-05T08:07:09;5.20;99.90
14741;DHT22;7462;53.530;9.414;2022-12-05T08:09:37;5.20;99.90
14741;DHT22;7462;53.530;9.414;2022-12-05T08:12:07;5.20;99.90
14741;DHT22;7462;53.530;9.414;2022-12-05T08:14:35;5.10;99.90
14741;DHT22;7462;53.530;9.414;2022-12-05T08:17:03;5.20;99.90
14741;DHT22;7462;53.530;9.414;2022-12-05T08:19:31;5.20;99.90
14741;DHT22;7462;53.530;9.414;2022-12-05T08:21:59;5.20;99.90
14741;DHT22;7462;53.530;9.414;2022-12-05T08:24:27;5.20;99.90
14741;DHT22;7462;53.530;9.414;2022-12-05T08:26:55;5.20;99.90
14741;DHT22;7462;53.530;9.414;2022-12-05T08:29:25;5.20;99.90
14741;DHT22;7462;53.530;9.414;2022-12-05T08:31:53;5.20;99.90
14741;DHT22;7462;53.530;9.414;2022-12-05T08:34:21;5.20;99.90
14741;DHT22;7462;53.530;9.414;2022-12-05T08:36:49;5.10;99.90
14741;DHT22;7462;53.530;9.414;2022-12-05T08:39:18;5.10;99.90
14741;DHT22;7462;53.530;9.414;2022-12-05T08:41:47;5.10;99.90
14741;DHT22;7462;53.530;9.414;2022-12-05T08:44:15;5.10;99.90
14741;DHT22;7462;53.530;9.414;2022-12-05T08:46:47;5.10;99.90
14741;DHT22;7462;53.530;9.414;2022-12-05T08:49:16;5.10;99.90
14741;DHT22;7462;53.530;9.414;2022-12-05T08:51:44;5.00;99.90
14741;DHT22;7462;53.530;9.414;2022-12-05T08:54:13;5.00;99.90
14741;DHT22;7462;53.530;9.414;2022-12-05T08:56:41;5.00;99.90
14741;DHT22;7462;53.530;9.414;2022-12-05T08:59:09;5.00;99.90
14741;DHT22;7462;53.530;9.414;2022-12-05T09:01:37;5.00;99.90
14741;DHT22;7462;53.530;9.414;2022-12-05T09:04:07;5.00;99.90
14741;DHT22;7462;53.530;9.414;2022-12-05T09:06:36;5.00;99.90
14741;DHT22;7462;53.530;9.414;2022-12-05T09:09:07;5.00;99.90
14741;DHT22;7462;53.530;9.414;2022-12-05T09:11:38;5.00;99.90
14741;DHT22;7462;53.530;9.414;2022-12-05T09:14:09;4.90;99.90
14741;DHT22;7462;53.530;9.414;2022-12-05T09:16:38;4.90;99.90
14741;DHT22;7462;53.530;9.414;2022-12-05T09:19:11;5.00;99.90
14741;DHT22;7462;53.530;9.414;2022-12-05T09:21:41;4.90;99.90
14741;DHT22;7462;53.530;9.414;2022-12-05T09:24:10;4.90;99.90
14741;DHT22;7462;53.530;9.414;2022-12-05T09:26:38;4.90;99.90
14741;DHT22;7462;53.530;9.414;2022-12-05T09:29:07;5.00;99.90
14741;DHT22;7462;53.530;9.414;2022-12-05T09:31:42;5.00;99.90
14741;DHT22;7462;53.530;9.414;2022-12-05T09:34:12;4.90;99.90
14741;DHT22;7462;53.530;9.414;2022-12-05T09:36:41;4.80;99.90
14741;DHT22;7462;53.530;9.414;2022-12-05T09:39:09;4.80;99.90
14741;DHT22;7462;53.530;9.414;2022-12-05T09:41:47;4.80;99.90
14741;DHT22;7462;53.530;9.414;2022-12-05T09:44:50;4.80;99.90
14741;DHT22;7462;53.530;9.414;2022-12-05T09:47:31;4.80;99.90
14741;DHT22;7462;53.530;9.414;2022-12-05T09:50:12;4.80;99.90
14741;DHT22;7462;53.530;9.414;2022-12-05T09:52:46;4.80;99.90
14741;DHT22;7462;53.530;9.414;2022-12-05T09:55:17;4.70;99.90
14741;DHT22;7462;53.530;9.414;2022-12-05T09:57:49;4.70;99.90
14741;DHT22;7462;53.530;9.414;2022-12-05T10:00:18;4.70;99.90
14741;DHT22;7462;53.530;9.414;2022-12-05T10:02:59;4.80;99.90
14741;DHT22;7462;53.530;9.414;2022-12-05T10:05:44;4.80;99.90
14741;DHT22;7462;53.530;9.414;2022-12-05T10:08:18;4.90;99.90
14741;DHT22;7462;53.530;9.414;2022-12-05T10:10:58;4.80;99.90
14741;DHT22;7462;53.530;9.414;2022-12-05T10:13:38;4.80;99.90
14741;DHT22;7462;53.530;9.414;2022-12-05T10:16:11;4.70;99.90
14741;DHT22;7462;53.530;9.414;2022-12-05T10:18:43;4.70;99.90
14741;DHT22;7462;53.530;9.414;2022-12-05T10:21:16;4.70;99.90
14741;DHT22;7462;53.530;9.414;2022-12-05T10:23:53;4.70;99.90
14741;DHT22;7462;53.530;9.414;2022-12-05T10:26:27;4.70;99.90
14741;DHT22;7462;53.530;9.414;2022-12-05T10:28:59;4.70;99.90
14741;DHT22;7462;53.530;9.414;2022-12-05T10:31:32;4.70;99.90
14741;DHT22;7462;53.530;9.414;2022-12-05T10:34:05;4.60;99.90
14741;DHT22;7462;53.530;9.414;2022-12-05T10:36:38;4.70;99.90
14741;DHT22;7462;53.530;9.414;2022-12-05T10:39:09;4.60;99.90
14741;DHT22;7462;53.530;9.414;2022-12-05T10:41:37;4.60;99.90
14741;DHT22;7462;53.530;9.414;2022-12-05T10:44:05;4.60;99.90
14741;DHT22;7462;53.530;9.414;2022-12-05T10:46:34;4.60;99.90
14741;DHT22;7462;53.530;9.414;2022-12-05T10:49:08;4.70;99.90
14741;DHT22;7462;53.530;9.414;2022-12-05T10:51:39;4.70;99.90
14741;DHT22;7462;53.530;9.414;2022-12-05T10:54:16;4.70;99.90
14741;DHT22;7462;53.530;9.414;2022-12-05T10:56:46;4.70;99.90
14741;DHT22;7462;53.530;9.414;2022-12-05T10:59:16;4.60;99.90
14741;DHT22;7462;53.530;9.414;2022-12-05T11:01:48;4.70;99.90
14741;DHT22;7462;53.530;9.414;2022-12-05T11:04:23;4.80;99.90
14741;DHT22;7462;53.530;9.414;2022-12-05T11:06:55;4.70;99.90
14741;DHT22;7462;53.530;9.414;2022-12-05T11:09:26;4.70;99.90
14741;DHT22;7462;53.530;9.414;2022-12-05T11:12:17;4.70;99.90
14741;DHT22;7462;53.530;9.414;2022-12-05T11:14:58;4.70;99.90
14741;DHT22;7462;53.530;9.414;2022-12-05T11:17:30;4.60;99.90
14741;DHT22;7462;53.530;9.414;2022-12-05T11:19:59;4.70;99.90
14741;DHT22;7462;53.530;9.414;2022-12-05T11:22:33;4.70;99.90
14741;DHT22;7462;53.530;9.414;2022-12-05T11:25:22;4.60;99.90
14741;DHT22;7462;53.530;9.414;2022-12-05T11:27:51;4.50;99.90
14741;DHT22;7462;53.530;9.414;2022-12-05T11:30:27;4.60;99.90
14741;DHT22;7462;53.530;9.414;2022-12-05T11:33:11;4.50;99.90
14741;DHT22;7462;53.530;9.414;2022-12-05T11:35:45;4.50;99.90
14741;DHT22;7462;53.530;9.414;2022-12-05T11:38:16;4.50;99.90
14741;DHT22;7462;53.530;9.414;2022-12-05T11:40:52;4.50;99.90
14741;DHT22;7462;53.530;9.414;2022-12-05T11:43:41;4.50;99.90
14741;DHT22;7462;53.530;9.414;2022-12-05T11:46:19;4.50;99.90
14741;DHT22;7462;53.530;9.414;2022-12-05T11:49:02;4.50;99.90
14741;DHT22;7462;53.530;9.414;2022-12-05T11:51:38;4.40;99.90
14741;DHT22;7462;53.530;9.414;2022-12-05T11:54:32;4.50;99.90
14741;DHT22;7462;53.530;9.414;2022-12-05T11:57:31;4.40;99.90
14741;DHT22;7462;53.530;9.414;2022-12-05T12:00:13;4.50;99.90
14741;DHT22;7462;53.530;9.414;2022-12-05T12:05:37;4.40;99.90
14741;DHT22;7462;53.530;9.414;2022-12-05T12:08:18;4.40;99.90
14741;DHT22;7462;53.530;9.414;2022-12-05T12:10:57;4.40;99.90
14741;DHT22;7462;53.530;9.414;2022-12-05T12:13:45;4.40;99.90
14741;DHT22;7462;53.530;9.414;2022-12-05T12:16:22;4.40;99.90
14741;DHT22;7462;53.530;9.414;2022-12-05T12:22:13;4.50;99.90
14741;DHT22;7462;53.530;9.414;2022-12-05T12:24:56;4.50;99.90
14741;DHT22;7462;53.530;9.414;2022-12-05T12:27:36;4.50;99.90
14741;DHT22;7462;53.530;9.414;2022-12-05T12:30:11;4.50;99.90
14741;DHT22;7462;53.530;9.414;2022-12-05T12:32:51;4.60;99.90
14741;DHT22;7462;53.530;9.414;2022-12-05T12:35:29;4.60;99.90
14741;DHT22;7462;53.530;9.414;2022-12-05T12:40:52;4.50;99.90
14741;DHT22;7462;53.530;9.414;2022-12-05T12:43:38;4.50;99.90
14741;DHT22;7462;53.530;9.414;2022-12-05T12:46:32;4.50;99.90
14741;DHT22;7462;53.530;9.414;2022-12-05T12:51:52;4.40;99.90
14741;DHT22;7462;53.530;9.414;2022-12-05T12:54:41;4.40;99.90
14741;DHT22;7462;53.530;9.414;2022-12-05T12:57:43;4.50;99.90
14741;DHT22;7462;53.530;9.414;2022-12-05T13:00:22;4.50;99.90
14741;DHT22;7462;53.530;9.414;2022-12-05T13:02:58;4.50;99.90
14741;DHT22;7462;53.530;9.414;2022-12-05T13:05:32;4.40;99.90
14741;DHT22;7462;53.530;9.414;2022-12-05T13:08:05;4.50;99.90
14741;DHT22;7462;53.530;9.414;2022-12-05T13:10:37;4.60;99.90
14741;DHT22;7462;53.530;9.414;2022-12-05T13:13:11;4.60;99.90
14741;DHT22;7462;53.530;9.414;2022-12-05T13:15:43;4.60;99.90
14741;DHT22;7462;53.530;9.414;2022-12-05T13:18:16;4.60;99.90
14741;DHT22;7462;53.530;9.414;2022-12-05T13:20:45;4.60;99.90
14741;DHT22;7462;53.530;9.414;2022-12-05T13:23:17;4.60;99.90
14741;DHT22;7462;53.530;9.414;2022-12-05T13:25:46;4.50;99.90
14741;DHT22;7462;53.530;9.414;2022-12-05T13:28:25;4.50;99.90
14741;DHT22;7462;53.530;9.414;2022-12-05T13:30:56;4.60;99.90
14741;DHT22;7462;53.530;9.414;2022-12-05T13:33:30;4.50;99.90
14741;DHT22;7462;53.530;9.414;2022-12-05T13:36:06;4.50;99.90
14741;DHT22;7462;53.530;9.414;2022-12-05T13:39:01;4.60;99.90
14741;DHT22;7462;53.530;9.414;2022-12-05T13:41:50;4.50;99.90
14741;DHT22;7462;53.530;9.414;2022-12-05T13:44:39;4.40;99.90
14741;DHT22;7462;53.530;9.414;2022-12-05T13:47:25;4.40;99.90
14741;DHT22;7462;53.530;9.414;2022-12-05T13:50:01;4.50;99.90
14741;DHT22;7462;53.530;9.414;2022-12-05T13:52:38;4.40;99.90
14741;DHT22;7462;53.530;9.414;2022-12-05T13:55:19;4.40;99.90
14741;DHT22;7462;53.530;9.414;2022-12-05T13:57:52;4.40;99.90
14741;DHT22;7462;53.530;9.414;2022-12-05T14:00:30;4.40;99.90
14741;DHT22;7462;53.530;9.414;2022-12-05T14:03:04;4.40;99.90
14741;DHT22;7462;53.530;9.414;2022-12-05T14:05:44;4.50;99.90
14741;DHT22;7462;53.530;9.414;2022-12-05T14:08:49;4.40;99.90
14741;DHT22;7462;53.530;9.414;2022-12-05T14:11:18;4.40;99.90
14741;DHT22;7462;53.530;9.414;2022-12-05T14:13:46;4.40;99.90
14741;DHT22;7462;53.530;9.414;2022-12-05T14:16:44;4.40;99.90
14741;DHT22;7462;53.530;9.414;2022-12-05T14:22:48;4.40;99.90
14741;DHT22;7462;53.530;9.414;2022-12-05T14:25:37;4.40;99.90
14741;DHT22;7462;53.530;9.414;2022-12-05T14:28:36;4.30;99.90
14741;DHT22;7462;53.530;9.414;2022-12-05T14:31:19;4.20;99.90
14741;DHT22;7462;53.530;9.414;2022-12-05T14:34:04;4.20;99.90
14741;DHT22;7462;53.530;9.414;2022-12-05T14:36:34;4.30;99.90
14741;DHT22;7462;53.530;9.414;2022-12-05T14:39:19;4.30;99.90
14741;DHT22;7462;53.530;9.414;2022-12-05T14:41:55;4.20;99.90
14741;DHT22;7462;53.530;9.414;2022-12-05T14:44:23;4.20;99.90
14741;DHT22;7462;53.530;9.414;2022-12-05T14:46:58;4.20;99.90
14741;DHT22;7462;53.530;9.414;2022-12-05T14:49:54;4.20;99.90
14741;DHT22;7462;53.530;9.414;2022-12-05T14:52:27;4.30;99.90
14741;DHT22;7462;53.530;9.414;2022-12-05T14:55:02;4.40;99.90
14741;DHT22;7462;53.530;9.414;2022-12-05T14:57:35;4.30;99.90
14741;DHT22;7462;53.530;9.414;2022-12-05T15:00:18;4.30;99.90
14741;DHT22;7462;53.530;9.414;2022-12-05T15:02:50;4.20;99.90
14741;DHT22;7462;53.530;9.414;2022-12-05T15:05:22;4.30;99.90
14741;DHT22;7462;53.530;9.414;2022-12-05T15:07:56;4.20;99.90
14741;DHT22;7462;53.530;9.414;2022-12-05T15:10:28;4.20;99.90
14741;DHT22;7462;53.530;9.414;2022-12-05T15:13:02;4.20;99.90
14741;DHT22;7462;53.530;9.414;2022-12-05T15:15:36;4.20;99.90
14741;DHT22;7462;53.530;9.414;2022-12-05T15:18:13;4.20;99.90
14741;DHT22;7462;53.530;9.414;2022-12-05T15:20:49;4.20;99.90
14741;DHT22;7462;53.530;9.414;2022-12-05T15:23:42;4.20;99.90
14741;DHT22;7462;53.530;9.414;2022-12-05T15:26:18;4.20;99.90
14741;DHT22;7462;53.530;9.414;2022-12-05T15:29:08;4.20;99.90
14741;DHT22;7462;53.530;9.414;2022-12-05T15:31:42;4.10;99.90
14741;DHT22;7462;53.530;9.414;2022-12-05T15:34:17;4.10;99.90
14741;DHT22;7462;53.530;9.414;2022-12-05T15:36:50;4.20;99.90
14741;DHT22;7462;53.530;9.414;2022-12-05T15:39:22;4.20;99.90
14741;DHT22;7462;53.530;9.414;2022-12-05T15:41:52;4.10;99.90
14741;DHT22;7462;53.530;9.414;2022-12-05T15:44:21;4.10;99.90
14741;DHT22;7462;53.530;9.414;2022-12-05T15:46:55;4.20;99.90
14741;DHT22;7462;53.530;9.414;2022-12-05T15:49:25;4.20;99.90
14741;DHT22;7462;53.530;9.414;2022-12-05T15:51:56;4.20;99.90
14741;DHT22;7462;53.530;9.414;2022-12-05T15:54:31;4.10;99.90
14741;DHT22;7462;53.530;9.414;2022-12-05T15:57:04;4.10;99.90
14741;DHT22;7462;53.530;9.414;2022-12-05T15:59:37;4.10;99.90
14741;DHT22;7462;53.530;9.414;2022-12-05T16:02:13;4.10;99.90
14741;DHT22;7462;53.530;9.414;2022-12-05T16:04:45;4.10;99.90
14741;DHT22;7462;53.530;9.414;2022-12-05T16:07:16;4.10;99.90
14741;DHT22;7462;53.530;9.414;2022-12-05T16:09:46;4.10;99.90
14741;DHT22;7462;53.530;9.414;2022-12-05T16:12:21;4.10;99.90
14741;DHT22;7462;53.530;9.414;2022-12-05T16:14:53;4.10;99.90
14741;DHT22;7462;53.530;9.414;2022-12-05T16:17:28;4.10;99.90
14741;DHT22;7462;53.530;9.414;2022-12-05T16:20:19;4.10;99.90
14741;DHT22;7462;53.530;9.414;2022-12-05T16:22:49;4.10;99.90
14741;DHT22;7462;53.530;9.414;2022-12-05T16:25:22;4.20;99.90
14741;DHT22;7462;53.530;9.414;2022-12-05T16:27:59;4.20;99.90
14741;DHT22;7462;53.530;9.414;2022-12-05T16:30:28;4.10;99.90
14741;DHT22;7462;53.530;9.414;2022-12-05T16:33:02;4.10;99.90
14741;DHT22;7462;53.530;9.414;2022-12-05T16:35:34;4.10;99.90
14741;DHT22;7462;53.530;9.414;2022-12-05T16:38:06;4.10;99.90
14741;DHT22;7462;53.530;9.414;2022-12-05T16:40:39;4.10;99.90
14741;DHT22;7462;53.530;9.414;2022-12-05T16:43:18;4.10;99.90
14741;DHT22;7462;53.530;9.414;2022-12-05T16:45:48;4.20;99.90
14741;DHT22;7462;53.530;9.414;2022-12-05T16:48:21;4.30;99.90
14741;DHT22;7462;53.530;9.414;2022-12-05T16:50:51;4.30;99.90
14741;DHT22;7462;53.530;9.414;2022-12-05T16:53:27;4.30;99.90
14741;DHT22;7462;53.530;9.414;2022-12-05T16:55:57;4.30;99.90
14741;DHT22;7462;53.530;9.414;2022-12-05T16:58:27;4.20;99.90
14741;DHT22;7462;53.530;9.414;2022-12-05T17:01:01;4.20;99.90
14741;DHT22;7462;53.530;9.414;2022-12-05T17:03:30;4.10;99.90